Time;durP1;ratioP1;P1;durP2;ratioP2;P2;SDS_P1;SDS_P2;PMS_P1;PMS_P2;Temp;Humidity;BMP_temperature;BMP_pressure;BME280_temperature;BME280_humidity;BME280_pressure;Samples;Min_cycle;Max_cycle;Signal;HPM_P1;HPM_P2
2023/05/02 00:00:37;;;;;;;10.27;6.25;;;12.40;79.60;;;;;;5069406;28;20232;-70
2023/05/02 00:03:26;;;;;;;13.35;6.65;;;12.50;79.90;;;;;;5073240;28;20310;-71
2023/05/02 00:06:17;;;;;;;11.55;6.60;;;12.40;79.90;;;;;;5072630;28;20216;-69
2023/05/02 00:09:07;;;;;;;11.65;6.18;;;12.40;80.10;;;;;;5074250;28;20265;-71
2023/05/02 00:11:57;;;;;;;11.40;6.78;;;12.40;80.50;;;;;;5075125;28;20232;-69
2023/05/02 00:14:46;;;;;;;11.90;6.75;;;12.50;80.60;;;;;;5070613;28;20227;-69
2023/05/02 00:17:40;;;;;;;11.15;6.40;;;12.40;80.50;;;;;;5076093;28;20713;-71
2023/05/02 00:20:30;;;;;;;11.40;6.85;;;12.50;81.10;;;;;;5075403;28;20227;-69
2023/05/02 00:23:20;;;;;;;14.75;6.72;;;12.40;80.70;;;;;;5066888;28;20225;-69
2023/05/02 00:26:13;;;;;;;13.05;6.97;;;12.40;80.80;;;;;;5070645;28;20937;-70
2023/05/02 00:29:04;;;;;;;12.48;7.00;;;12.50;81.00;;;;;;5073790;28;20292;-68
2023/05/02 00:31:53;;;;;;;10.98;6.72;;;12.50;80.80;;;;;;5073944;28;20681;-69
2023/05/02 00:34:43;;;;;;;13.48;6.80;;;12.50;80.60;;;;;;5074709;28;20780;-70
2023/05/02 00:37:33;;;;;;;13.60;6.93;;;12.40;81.10;;;;;;5072233;28;20216;-69
2023/05/02 00:40:22;;;;;;;13.65;6.20;;;12.30;81.10;;;;;;5075810;28;20215;-69
2023/05/02 00:43:11;;;;;;;15.43;6.93;;;12.30;81.50;;;;;;5077160;28;20977;-69
2023/05/02 00:46:00;;;;;;;14.20;6.35;;;12.30;81.40;;;;;;5062075;28;20697;-69
2023/05/02 00:48:49;;;;;;;10.35;6.82;;;12.40;81.50;;;;;;5082407;28;20246;-68
2023/05/02 00:51:39;;;;;;;9.77;6.95;;;12.30;81.50;;;;;;5076746;27;20652;-70
2023/05/02 00:54:29;;;;;;;11.70;6.30;;;12.40;81.80;;;;;;5074954;28;20254;-68
2023/05/02 00:57:18;;;;;;;12.95;6.93;;;12.40;81.90;;;;;;5066902;28;21053;-69
2023/05/02 01:00:09;;;;;;;13.10;6.35;;;12.50;81.70;;;;;;5068573;28;20603;-69
2023/05/02 01:03:12;;;;;;;11.95;6.00;;;12.30;81.50;;;;;;5073285;28;20212;-69
2023/05/02 01:06:19;;;;;;;14.75;6.65;;;12.40;81.80;;;;;;5079908;28;20281;-69
2023/05/02 01:09:27;;;;;;;10.50;6.13;;;12.30;81.80;;;;;;5101066;27;20230;-69
2023/05/02 01:12:23;;;;;;;18.92;6.32;;;12.30;81.30;;;;;;5067729;28;20219;-71
2023/05/02 01:15:21;;;;;;;13.77;5.90;;;12.20;81.70;;;;;;5072320;28;20592;-69
2023/05/02 01:18:13;;;;;;;8.88;6.25;;;12.20;81.80;;;;;;5074842;28;20537;-66
2023/05/02 01:21:07;;;;;;;9.15;5.20;;;12.20;82.00;;;;;;5074769;28;20714;-66
2023/05/02 01:24:05;;;;;;;10.23;5.65;;;12.20;81.50;;;;;;5066193;28;20231;-66
2023/05/02 01:27:06;;;;;;;9.93;5.78;;;12.30;81.90;;;;;;5072511;28;20224;-65
2023/05/02 01:29:59;;;;;;;10.07;6.28;;;12.20;81.20;;;;;;5067564;28;20236;-67
2023/05/02 01:32:52;;;;;;;9.32;5.38;;;12.10;81.80;;;;;;5070625;28;20303;-66
2023/05/02 01:35:43;;;;;;;11.13;5.57;;;12.10;82.00;;;;;;5072900;28;20348;-66
2023/05/02 01:38:34;;;;;;;10.55;5.70;;;12.10;82.30;;;;;;5070554;28;20392;-68
2023/05/02 01:41:27;;;;;;;10.82;5.75;;;12.00;82.40;;;;;;5067326;28;20340;-68
2023/05/02 01:44:17;;;;;;;12.00;5.90;;;12.10;82.30;;;;;;5071253;28;20777;-65
2023/05/02 01:47:09;;;;;;;9.40;5.18;;;12.00;82.50;;;;;;5071136;28;20220;-66
2023/05/02 01:49:59;;;;;;;11.73;5.70;;;12.10;82.90;;;;;;5066343;28;20232;-67
2023/05/02 01:52:51;;;;;;;12.00;5.63;;;12.20;82.70;;;;;;5077735;28;20243;-69
2023/05/02 01:55:43;;;;;;;10.07;5.60;;;12.20;83.20;;;;;;5071823;28;20296;-68
2023/05/02 01:58:36;;;;;;;11.85;6.13;;;12.20;82.60;;;;;;5074621;28;20252;-67
2023/05/02 02:01:27;;;;;;;10.85;6.15;;;12.20;82.90;;;;;;5072353;28;20239;-69
2023/05/02 02:04:20;;;;;;;11.95;6.38;;;12.00;82.70;;;;;;5074872;27;20216;-68
2023/05/02 02:07:13;;;;;;;9.77;6.38;;;11.90;83.40;;;;;;5068497;28;20761;-68
2023/05/02 02:10:02;;;;;;;10.02;6.10;;;11.90;83.80;;;;;;5069913;28;20231;-69
2023/05/02 02:12:54;;;;;;;10.52;5.85;;;11.90;83.40;;;;;;5073324;28;20234;-69
2023/05/02 02:15:46;;;;;;;10.50;5.95;;;11.90;83.80;;;;;;5071192;28;20228;-68
2023/05/02 02:18:39;;;;;;;11.60;5.57;;;12.00;83.70;;;;;;5074623;28;20691;-71
2023/05/02 02:21:32;;;;;;;12.27;6.32;;;11.90;83.90;;;;;;5083327;28;20780;-69
2023/05/02 02:24:22;;;;;;;13.10;6.15;;;11.90;83.80;;;;;;5078079;28;20232;-69
2023/05/02 02:27:11;;;;;;;9.95;5.85;;;11.70;84.40;;;;;;5066690;28;20295;-70
2023/05/02 02:30:00;;;;;;;11.95;6.20;;;11.80;84.60;;;;;;5081258;27;20266;-69
2023/05/02 02:32:50;;;;;;;12.15;6.43;;;11.90;84.30;;;;;;5070014;28;20236;-69
2023/05/02 02:35:42;;;;;;;8.73;5.93;;;11.80;84.50;;;;;;5070034;28;20564;-69
2023/05/02 02:38:41;;;;;;;10.25;5.90;;;11.60;85.90;;;;;;5082237;28;20302;-71
2023/05/02 02:41:36;;;;;;;11.25;6.53;;;11.70;85.40;;;;;;5070035;28;20215;-71
2023/05/02 02:44:32;;;;;;;11.60;6.53;;;11.60;85.50;;;;;;5082769;28;20310;-71
2023/05/02 02:47:28;;;;;;;10.93;6.10;;;11.70;85.80;;;;;;5070605;28;20653;-70
2023/05/02 02:50:25;;;;;;;16.52;6.35;;;11.80;86.10;;;;;;5086037;28;20303;-69
2023/05/02 02:53:18;;;;;;;15.40;6.63;;;11.70;85.60;;;;;;5079527;28;20227;-69
2023/05/02 02:56:16;;;;;;;12.65;6.13;;;11.60;85.60;;;;;;5080811;28;20330;-68
2023/05/02 02:59:11;;;;;;;11.88;5.97;;;11.60;86.30;;;;;;5095407;27;20227;-70
2023/05/02 03:02:05;;;;;;;10.23;5.78;;;11.70;86.10;;;;;;5076197;28;20240;-70
2023/05/02 03:04:56;;;;;;;12.35;6.38;;;11.60;86.10;;;;;;5071570;28;20293;-69
2023/05/02 03:07:45;;;;;;;13.07;6.07;;;11.50;86.10;;;;;;5079509;28;20212;-69
2023/05/02 03:10:34;;;;;;;11.90;6.00;;;11.50;86.60;;;;;;5073162;28;20244;-72
2023/05/02 03:13:24;;;;;;;11.32;6.00;;;11.40;86.50;;;;;;5107216;27;20226;-72
2023/05/02 03:16:33;;;;;;;14.63;6.22;;;11.40;87.00;;;;;;5069738;28;20295;-70
2023/05/02 03:19:24;;;;;;;11.50;5.75;;;11.50;87.20;;;;;;5077075;28;20989;-71
2023/05/02 03:22:13;;;;;;;12.10;5.95;;;11.40;86.90;;;;;;5071025;28;20637;-71
2023/05/02 03:25:02;;;;;;;10.82;6.35;;;11.40;87.20;;;;;;5063828;28;20302;-70
2023/05/02 03:27:51;;;;;;;13.00;6.47;;;11.40;87.40;;;;;;5076574;28;20277;-70
2023/05/02 03:30:41;;;;;;;11.93;6.13;;;11.40;87.70;;;;;;5083860;28;20328;-69
2023/05/02 03:33:32;;;;;;;11.57;6.32;;;11.50;87.60;;;;;;5067013;28;20235;-68
2023/05/02 03:36:21;;;;;;;11.43;5.95;;;11.40;87.50;;;;;;5068454;28;20228;-68
2023/05/02 03:39:13;;;;;;;11.80;5.95;;;11.50;87.70;;;;;;5099423;27;20238;-68
2023/05/02 03:42:02;;;;;;;9.60;6.10;;;11.30;87.80;;;;;;5072669;28;20933;-70
2023/05/02 03:44:53;;;;;;;12.93;5.72;;;11.30;88.00;;;;;;5071280;28;20321;-70
2023/05/02 03:47:44;;;;;;;12.20;6.00;;;11.50;88.30;;;;;;5102418;27;20661;-70
2023/05/02 03:50:33;;;;;;;14.20;6.20;;;11.70;87.80;;;;;;5069587;28;20239;-71
2023/05/02 03:53:22;;;;;;;10.65;5.57;;;11.60;87.40;;;;;;5087082;27;20228;-71
2023/05/02 03:56:19;;;;;;;11.55;6.00;;;11.60;87.80;;;;;;5079104;28;20218;-70
2023/05/02 03:59:19;;;;;;;9.45;5.65;;;11.60;87.80;;;;;;5068132;28;20216;-71
2023/05/02 04:02:08;;;;;;;12.05;6.20;;;11.60;87.80;;;;;;5071163;28;20792;-72
2023/05/02 04:05:02;;;;;;;12.57;6.10;;;11.60;87.60;;;;;;5074648;28;20238;-70
2023/05/02 04:07:52;;;;;;;10.60;5.72;;;11.60;87.50;;;;;;5096936;27;20242;-70
2023/05/02 04:10:41;;;;;;;11.80;6.32;;;11.70;87.90;;;;;;5067683;28;20334;-69
2023/05/02 04:13:32;;;;;;;11.38;5.10;;;11.70;88.30;;;;;;5076198;28;20314;-73
2023/05/02 04:16:21;;;;;;;12.60;5.82;;;11.80;87.90;;;;;;5094870;27;20217;-67
2023/05/02 04:19:11;;;;;;;12.00;5.38;;;11.80;87.80;;;;;;5072220;28;20231;-70
2023/05/02 04:22:02;;;;;;;10.13;5.55;;;11.70;87.80;;;;;;5074215;28;20239;-69
2023/05/02 04:24:55;;;;;;;14.00;5.85;;;11.60;87.90;;;;;;5099025;27;20319;-69
2023/05/02 04:27:46;;;;;;;12.00;5.78;;;11.70;88.00;;;;;;5076453;28;20607;-70
2023/05/02 04:30:38;;;;;;;11.57;5.85;;;11.70;88.00;;;;;;5068042;28;20717;-71
2023/05/02 04:33:31;;;;;;;14.43;5.78;;;11.80;88.00;;;;;;5067414;28;20227;-70
2023/05/02 04:36:20;;;;;;;9.43;5.50;;;11.90;87.80;;;;;;5094083;27;20559;-72
2023/05/02 04:39:10;;;;;;;10.68;5.72;;;12.10;88.00;;;;;;5075099;28;20232;-72
2023/05/02 04:42:04;;;;;;;14.02;5.28;;;12.10;87.50;;;;;;5070182;28;20680;-70
2023/05/02 04:44:59;;;;;;;10.85;5.47;;;12.10;87.40;;;;;;5072578;27;20216;-72
2023/05/02 04:47:48;;;;;;;14.13;5.60;;;12.20;87.80;;;;;;5087572;28;20366;-72
2023/05/02 04:50:37;;;;;;;14.50;5.75;;;12.10;87.10;;;;;;5067458;28;20315;-69
2023/05/02 04:53:26;;;;;;;11.07;5.75;;;12.20;87.20;;;;;;5075549;28;20603;-71
2023/05/02 04:56:16;;;;;;;10.15;5.40;;;12.20;87.40;;;;;;5073427;28;20220;-68
2023/05/02 04:59:05;;;;;;;12.15;5.53;;;12.20;87.40;;;;;;5067054;28;20220;-68
2023/05/02 05:01:55;;;;;;;11.85;6.15;;;12.30;88.20;;;;;;5074608;28;21027;-70
2023/05/02 05:04:44;;;;;;;10.18;5.43;;;12.40;87.60;;;;;;5064914;28;20219;-70
2023/05/02 05:07:33;;;;;;;10.02;5.80;;;12.40;87.30;;;;;;5070163;28;20590;-70
2023/05/02 05:10:22;;;;;;;10.50;5.22;;;12.70;87.00;;;;;;5073601;28;20220;-68
2023/05/02 05:13:13;;;;;;;9.60;5.60;;;12.80;86.00;;;;;;5071669;28;20228;-69
2023/05/02 05:16:03;;;;;;;10.38;5.50;;;13.00;86.30;;;;;;5092624;27;20223;-69
2023/05/02 05:18:54;;;;;;;9.45;5.28;;;13.10;85.20;;;;;;5073424;28;20258;-69
2023/05/02 05:21:43;;;;;;;11.25;5.25;;;13.40;85.90;;;;;;5068597;28;20219;-70
2023/05/02 05:24:33;;;;;;;11.15;5.22;;;13.60;85.50;;;;;;5071143;28;20216;-69
2023/05/02 05:27:22;;;;;;;8.10;4.95;;;13.50;84.60;;;;;;5067109;28;20228;-69
2023/05/02 05:30:13;;;;;;;12.80;5.70;;;13.70;84.20;;;;;;5068471;28;20220;-71
2023/05/02 05:33:04;;;;;;;11.57;5.47;;;13.70;83.60;;;;;;5069577;28;20219;-69
2023/05/02 05:35:53;;;;;;;9.27;5.00;;;13.90;84.10;;;;;;5069814;28;20239;-68
2023/05/02 05:38:42;;;;;;;11.38;5.72;;;13.70;83.80;;;;;;5074150;28;20215;-67
2023/05/02 05:41:33;;;;;;;12.32;5.63;;;14.00;83.90;;;;;;5068882;28;20285;-67
2023/05/02 05:44:26;;;;;;;9.57;5.35;;;14.40;82.90;;;;;;5062574;28;20235;-67
2023/05/02 05:47:21;;;;;;;9.90;5.50;;;14.20;82.90;;;;;;5095817;28;20269;-72
2023/05/02 05:50:11;;;;;;;7.95;5.32;;;14.10;83.80;;;;;;5073345;28;20265;-71
2023/05/02 05:53:02;;;;;;;7.38;5.00;;;14.40;82.90;;;;;;5062014;28;20223;-72
2023/05/02 05:55:51;;;;;;;11.57;6.60;;;14.60;82.90;;;;;;5064079;28;20318;-69
2023/05/02 05:58:41;;;;;;;10.88;5.10;;;14.90;82.30;;;;;;5068999;28;20230;-68
2023/05/02 06:01:34;;;;;;;11.20;5.38;;;15.30;81.20;;;;;;5067936;28;20223;-68
2023/05/02 06:04:26;;;;;;;7.85;5.13;;;15.80;80.20;;;;;;5079451;28;20310;-69
2023/05/02 06:07:15;;;;;;;11.57;6.53;;;15.80;80.00;;;;;;5109433;27;20754;-68
2023/05/02 06:10:07;;;;;;;9.43;4.80;;;15.70;81.70;;;;;;5084336;28;20722;-70
2023/05/02 06:12:56;;;;;;;11.45;5.10;;;15.80;80.80;;;;;;5073612;28;20305;-69
2023/05/02 06:15:50;;;;;;;8.32;5.60;;;15.80;81.80;;;;;;5074462;28;20248;-68
2023/05/02 06:18:39;;;;;;;11.00;5.30;;;15.80;81.40;;;;;;5080182;27;20230;-70
2023/05/02 06:21:30;;;;;;;14.57;5.80;;;16.00;81.90;;;;;;5076364;28;20318;-69
2023/05/02 06:24:19;;;;;;;12.57;5.85;;;16.20;81.20;;;;;;5079416;28;20308;-70
2023/05/02 06:27:07;;;;;;;12.18;5.15;;;17.20;80.10;;;;;;5070586;28;20223;-71
2023/05/02 06:29:56;;;;;;;10.88;5.18;;;17.50;77.90;;;;;;5073633;28;20696;-67
2023/05/02 06:32:46;;;;;;;8.23;5.13;;;16.90;79.20;;;;;;5078619;28;20301;-70
2023/05/02 06:35:35;;;;;;;9.98;5.60;;;16.70;80.40;;;;;;5076671;28;20216;-70
2023/05/02 06:38:25;;;;;;;8.30;5.15;;;16.60;81.10;;;;;;5081371;28;20226;-71
2023/05/02 06:41:14;;;;;;;8.95;4.95;;;16.70;81.30;;;;;;5072735;28;20706;-71
2023/05/02 06:44:05;;;;;;;8.55;5.03;;;16.90;81.50;;;;;;5069956;28;20628;-69
2023/05/02 06:46:55;;;;;;;7.65;4.55;;;17.20;80.90;;;;;;5066116;28;20539;-69
2023/05/02 06:49:44;;;;;;;8.23;5.40;;;17.20;81.20;;;;;;5075769;28;20228;-71
2023/05/02 06:52:33;;;;;;;9.75;4.65;;;17.50;81.30;;;;;;5083247;28;20578;-70
2023/05/02 06:55:23;;;;;;;9.15;4.70;;;17.30;81.30;;;;;;5072653;28;20229;-72
2023/05/02 06:58:12;;;;;;;9.23;4.65;;;17.50;81.50;;;;;;5075119;28;20239;-69
2023/05/02 07:01:00;;;;;;;8.85;4.45;;;17.80;81.30;;;;;;5070837;28;20622;-68
2023/05/02 07:03:49;;;;;;;6.93;4.35;;;18.00;81.00;;;;;;5073094;27;20227;-69
2023/05/02 07:06:38;;;;;;;9.27;4.30;;;18.10;80.90;;;;;;5069125;28;20239;-70
2023/05/02 07:09:27;;;;;;;10.70;5.05;;;18.30;80.50;;;;;;5084304;27;20276;-70
2023/05/02 07:12:18;;;;;;;6.18;4.20;;;18.60;80.60;;;;;;5071969;28;20230;-71
2023/05/02 07:15:09;;;;;;;8.55;4.30;;;18.80;79.90;;;;;;5070872;28;20230;-69
2023/05/02 07:17:57;;;;;;;7.75;4.53;;;19.00;78.80;;;;;;5071157;28;20656;-68
2023/05/02 07:20:46;;;;;;;6.28;4.00;;;19.10;78.70;;;;;;5074536;28;20740;-69
2023/05/02 07:23:35;;;;;;;6.18;4.10;;;19.10;78.10;;;;;;5071549;28;20361;-69
2023/05/02 07:26:25;;;;;;;6.82;4.25;;;19.20;78.40;;;;;;5067593;28;20632;-69
2023/05/02 07:29:15;;;;;;;9.63;3.70;;;19.60;77.90;;;;;;5068154;28;20219;-69
2023/05/02 07:32:04;;;;;;;7.90;3.92;;;19.60;76.70;;;;;;5068953;28;20236;-68
2023/05/02 07:34:55;;;;;;;9.43;3.70;;;19.80;75.80;;;;;;5075655;28;20234;-70
2023/05/02 07:37:43;;;;;;;7.25;3.70;;;20.10;75.20;;;;;;5083506;28;20243;-68
2023/05/02 07:40:32;;;;;;;6.43;3.20;;;20.20;74.50;;;;;;5071683;28;20219;-69
2023/05/02 07:43:21;;;;;;;14.07;3.35;;;20.40;73.40;;;;;;5085081;28;20227;-69
2023/05/02 07:46:11;;;;;;;5.88;3.10;;;20.40;72.30;;;;;;5070609;28;20367;-68
2023/05/02 07:49:00;;;;;;;4.90;3.13;;;20.20;71.50;;;;;;5075985;28;20236;-69
2023/05/02 07:51:49;;;;;;;9.02;3.05;;;20.30;72.40;;;;;;5076275;28;20238;-70
2023/05/02 07:54:38;;;;;;;5.72;3.00;;;20.20;73.10;;;;;;5079532;28;20310;-68
2023/05/02 07:57:27;;;;;;;6.72;2.78;;;21.00;71.40;;;;;;5071947;28;20474;-69
2023/05/02 08:00:17;;;;;;;6.93;3.30;;;21.20;70.20;;;;;;5081945;28;20227;-69
2023/05/02 08:03:07;;;;;;;5.22;2.75;;;21.40;70.00;;;;;;5066389;28;20679;-69
2023/05/02 08:05:56;;;;;;;4.57;2.83;;;21.10;70.70;;;;;;5078123;28;20794;-69
2023/05/02 08:08:45;;;;;;;10.60;3.10;;;21.30;70.30;;;;;;5091003;28;20306;-68
2023/05/02 08:11:33;;;;;;;6.93;2.72;;;21.40;70.00;;;;;;5072141;28;20660;-70
2023/05/02 08:14:22;;;;;;;6.97;3.40;;;21.50;70.10;;;;;;5085076;28;20757;-68
2023/05/02 08:17:16;;;;;;;6.72;3.13;;;21.30;69.70;;;;;;5068457;28;20435;-70
2023/05/02 08:20:11;;;;;;;8.70;3.90;;;21.80;69.40;;;;;;5094063;27;20212;-69
2023/05/02 08:23:02;;;;;;;5.30;3.30;;;22.20;68.60;;;;;;5072001;28;20231;-69
2023/05/02 08:25:51;;;;;;;5.53;3.38;;;22.50;68.50;;;;;;5083942;28;20322;-69
2023/05/02 08:28:40;;;;;;;6.60;3.30;;;23.00;68.40;;;;;;5065540;28;20315;-69
2023/05/02 08:31:28;;;;;;;4.03;3.13;;;23.70;68.20;;;;;;5077981;28;20230;-69
2023/05/02 08:34:17;;;;;;;4.32;3.20;;;24.30;65.50;;;;;;5074427;28;20297;-69
2023/05/02 08:37:10;;;;;;;5.78;3.30;;;24.60;63.80;;;;;;5077780;28;20326;-71
2023/05/02 08:40:00;;;;;;;7.07;3.58;;;24.70;65.70;;;;;;5068452;28;20220;-70
2023/05/02 08:42:51;;;;;;;6.05;3.75;;;24.30;63.60;;;;;;5081733;28;20255;-70
2023/05/02 08:45:42;;;;;;;8.63;4.03;;;24.70;63.80;;;;;;5081427;28;20235;-69
2023/05/02 08:48:32;;;;;;;5.18;3.67;;;24.00;63.40;;;;;;5077002;28;20306;-69
2023/05/02 08:51:24;;;;;;;8.48;3.60;;;23.70;64.90;;;;;;5072278;28;20227;-69
2023/05/02 08:54:17;;;;;;;4.05;3.65;;;24.90;64.80;;;;;;5074378;28;20345;-69
2023/05/02 08:57:06;;;;;;;6.78;3.80;;;25.70;64.50;;;;;;5079301;28;20654;-70
2023/05/02 08:59:55;;;;;;;5.47;4.15;;;26.10;62.90;;;;;;5077802;28;20231;-68
2023/05/02 09:02:58;;;;;;;9.68;4.00;;;26.50;63.10;;;;;;5079826;28;20946;-68
2023/05/02 09:05:52;;;;;;;7.07;3.90;;;25.80;60.00;;;;;;5081797;28;20223;-69
2023/05/02 09:08:42;;;;;;;5.97;4.07;;;24.90;62.40;;;;;;5068725;28;20695;-69
2023/05/02 09:11:33;;;;;;;6.88;4.22;;;25.70;64.50;;;;;;5076425;28;20316;-66
2023/05/02 09:14:22;;;;;;;7.88;4.38;;;25.90;63.40;;;;;;5079041;28;20600;-70
2023/05/02 09:17:11;;;;;;;10.88;4.35;;;25.30;62.20;;;;;;5070949;28;20227;-72
2023/05/02 09:20:01;;;;;;;10.45;4.70;;;25.00;63.20;;;;;;5072695;28;20337;-68
2023/05/02 09:22:51;;;;;;;9.63;4.15;;;25.10;64.10;;;;;;5063532;28;20909;-69
2023/05/02 09:25:40;;;;;;;9.55;4.28;;;25.80;64.30;;;;;;5075052;28;20236;-69
2023/05/02 09:28:41;;;;;;;6.97;4.13;;;25.70;61.60;;;;;;5064956;28;20231;-69
2023/05/02 09:31:33;;;;;;;7.45;4.50;;;25.30;64.60;;;;;;5068502;27;20341;-70
2023/05/02 09:35:05;;;;;;;9.30;4.43;;;25.20;64.40;;;;;;5069771;28;20242;-70
2023/05/02 09:37:55;;;;;;;7.38;4.57;;;24.80;64.30;;;;;;5069107;28;20232;-69
2023/05/02 09:40:54;;;;;;;5.60;4.45;;;24.20;66.90;;;;;;5067803;28;20702;-70
2023/05/02 09:43:55;;;;;;;5.57;4.22;;;24.20;66.70;;;;;;5077591;28;20227;-72
2023/05/02 09:46:46;;;;;;;7.68;4.40;;;24.30;66.20;;;;;;5072224;28;20785;-69
2023/05/02 09:49:43;;;;;;;10.85;4.80;;;24.10;68.60;;;;;;5072360;28;20219;-70
2023/05/02 09:52:32;;;;;;;8.50;4.75;;;24.30;67.80;;;;;;5065123;28;20223;-69
2023/05/02 09:55:21;;;;;;;10.18;5.15;;;26.30;65.30;;;;;;5065685;28;20326;-69
2023/05/02 09:58:21;;;;;;;9.15;5.38;;;27.00;63.10;;;;;;5074498;28;20228;-69
2023/05/02 10:01:16;;;;;;;6.13;4.72;;;27.40;60.30;;;;;;5066516;28;20426;-70
2023/05/02 10:04:05;;;;;;;14.85;5.85;;;26.50;62.20;;;;;;5069821;28;20283;-68
2023/05/02 10:06:55;;;;;;;6.60;4.82;;;25.80;62.90;;;;;;5070010;28;20276;-71
2023/05/02 10:09:45;;;;;;;9.32;5.53;;;25.90;65.40;;;;;;5082268;28;20333;-68
2023/05/02 10:12:34;;;;;;;8.75;5.82;;;25.70;63.50;;;;;;5068822;28;20224;-67
2023/05/02 10:15:26;;;;;;;8.40;5.93;;;26.10;64.40;;;;;;5069968;28;20238;-69
2023/05/02 10:18:27;;;;;;;7.95;4.97;;;25.40;63.70;;;;;;5067677;28;20235;-69
2023/05/02 10:21:20;;;;;;;9.38;5.72;;;25.20;65.80;;;;;;5072532;28;20226;-70
2023/05/02 10:24:09;;;;;;;10.20;6.07;;;24.70;67.40;;;;;;5070546;27;20238;-70
2023/05/02 10:27:01;;;;;;;7.97;6.30;;;24.10;68.40;;;;;;5068021;28;20227;-70
2023/05/02 10:29:53;;;;;;;9.77;6.45;;;23.80;70.00;;;;;;5070680;28;20235;-70
2023/05/02 10:32:48;;;;;;;11.43;6.25;;;23.30;71.10;;;;;;5068297;28;20223;-70
2023/05/02 10:35:45;;;;;;;7.47;5.93;;;23.20;72.10;;;;;;5071212;28;20227;-71
2023/05/02 10:38:35;;;;;;;6.75;5.60;;;23.20;73.40;;;;;;5076159;27;20216;-70
2023/05/02 10:41:30;;;;;;;9.77;5.88;;;22.90;74.30;;;;;;5073473;28;20338;-71
2023/05/02 10:44:35;;;;;;;8.57;5.05;;;22.90;75.50;;;;;;5064913;28;20224;-70
2023/05/02 10:47:29;;;;;;;12.77;5.55;;;22.70;75.30;;;;;;5062091;28;20213;-70
2023/05/02 10:50:20;;;;;;;11.02;6.05;;;22.40;76.40;;;;;;5082378;28;20566;-67
2023/05/02 10:53:28;;;;;;;9.13;5.78;;;21.90;77.20;;;;;;5079172;28;20239;-68
2023/05/02 10:56:21;;;;;;;9.80;6.13;;;21.80;77.90;;;;;;5100126;27;20246;-68
2023/05/02 10:59:28;;;;;;;11.25;6.57;;;21.60;78.50;;;;;;5074619;28;20226;-67
2023/05/02 11:02:47;;;;;;;10.50;6.05;;;21.50;79.80;;;;;;5069815;28;20237;-68
2023/05/02 11:06:06;;;;;;;13.55;6.53;;;21.20;80.00;;;;;;5078491;28;20215;-68
2023/05/02 11:09:29;;;;;;;9.77;7.20;;;21.00;80.80;;;;;;5067576;28;20224;-69
2023/05/02 11:12:47;;;;;;;9.48;6.80;;;20.60;81.20;;;;;;5082223;28;20227;-68
2023/05/02 11:15:56;;;;;;;12.60;6.90;;;20.50;82.40;;;;;;5073238;28;20231;-68
2023/05/02 11:19:01;;;;;;;14.23;6.53;;;20.30;82.90;;;;;;5075689;28;20470;-68
2023/05/02 11:21:52;;;;;;;8.95;7.22;;;20.20;91.40;;;;;;5080562;28;20768;-67
2023/05/02 11:24:43;;;;;;;10.15;7.57;;;19.80;93.00;;;;;;5076217;28;20777;-68
2023/05/02 11:27:38;;;;;;;13.98;8.20;;;19.40;94.60;;;;;;5080221;28;20823;-66
2023/05/02 11:30:47;;;;;;;12.55;8.95;;;19.20;96.40;;;;;;5054495;28;20242;-67
2023/05/02 11:33:36;;;;;;;11.50;8.85;;;18.90;97.10;;;;;;5046889;28;20273;-67
2023/05/02 11:36:29;;;;;;;12.75;9.02;;;18.90;98.20;;;;;;5061537;28;20262;-67
2023/05/02 11:39:22;;;;;;;11.70;8.65;;;19.00;99.10;;;;;;5050139;28;20232;-67
2023/05/02 11:42:11;;;;;;;12.88;9.23;;;19.10;98.20;;;;;;5046231;28;20353;-67
2023/05/02 11:45:01;;;;;;;12.48;9.50;;;19.20;99.40;;;;;;5051858;28;20281;-67
2023/05/02 11:47:52;;;;;;;12.45;8.95;;;19.50;98.00;;;;;;5052254;28;20232;-67
2023/05/02 11:50:45;;;;;;;9.35;8.38;;;19.90;98.30;;;;;;5042600;28;20255;-68
2023/05/02 11:53:41;;;;;;;11.18;8.30;;;20.00;98.60;;;;;;5045851;28;20323;-66
2023/05/02 11:56:30;;;;;;;11.40;7.97;;;19.80;97.00;;;;;;5061929;28;20324;-67
2023/05/02 11:59:19;;;;;;;10.38;7.90;;;19.70;97.20;;;;;;5056260;28;20212;-67
2023/05/02 12:02:08;;;;;;;10.32;7.82;;;19.60;96.20;;;;;;5056138;28;20220;-67
2023/05/02 12:04:58;;;;;;;9.85;8.32;;;19.80;97.00;;;;;;5046723;28;20833;-67
2023/05/02 12:07:48;;;;;;;9.95;7.70;;;20.00;96.80;;;;;;5059296;28;20263;-66
2023/05/02 12:10:37;;;;;;;10.10;7.85;;;20.10;96.70;;;;;;5055191;28;20219;-66
2023/05/02 12:13:26;;;;;;;12.57;7.80;;;20.20;95.80;;;;;;5043478;28;20230;-66
2023/05/02 12:16:16;;;;;;;11.05;8.45;;;20.30;95.60;;;;;;5041508;28;20241;-66
2023/05/02 12:19:05;;;;;;;12.40;9.10;;;20.70;93.90;;;;;;5061485;28;20331;-66
2023/05/02 12:21:56;;;;;;;13.88;9.70;;;23.40;93.60;;;;;;5049594;28;20229;-68
2023/05/02 12:24:45;;;;;;;14.40;10.95;;;24.80;90.40;;;;;;5054220;28;20271;-68
2023/05/02 12:27:34;;;;;;;11.95;9.88;;;23.90;85.00;;;;;;5051956;28;20633;-66
2023/05/02 12:30:26;;;;;;;11.98;10.35;;;23.80;86.10;;;;;;5061553;28;20228;-66
2023/05/02 12:33:16;;;;;;;14.07;10.63;;;23.20;87.40;;;;;;5059055;28;20229;-67
2023/05/02 12:36:10;;;;;;;14.13;11.13;;;23.20;86.50;;;;;;5049196;28;20232;-70
2023/05/02 12:39:04;;;;;;;12.27;10.18;;;22.90;85.70;;;;;;5048890;28;20365;-68
2023/05/02 12:41:59;;;;;;;13.13;9.63;;;22.50;85.10;;;;;;5053562;28;20228;-69
2023/05/02 12:44:59;;;;;;;11.05;9.82;;;22.40;89.50;;;;;;5034570;28;20596;-68
2023/05/02 12:47:51;;;;;;;14.13;10.02;;;22.50;88.10;;;;;;5050821;28;20232;-67
2023/05/02 12:50:42;;;;;;;13.80;9.70;;;22.50;86.30;;;;;;5045117;28;20959;-68
2023/05/02 12:53:44;;;;;;;10.98;8.63;;;22.50;87.60;;;;;;5058222;28;20568;-69
2023/05/02 12:56:42;;;;;;;6.53;5.82;;;22.10;85.10;;;;;;5046888;28;20254;-68
2023/05/02 12:59:33;;;;;;;7.43;5.20;;;21.90;81.50;;;;;;5041255;28;20733;-68
2023/05/02 13:02:22;;;;;;;6.75;5.53;;;21.70;80.70;;;;;;5065045;28;20331;-69
2023/05/02 13:05:15;;;;;;;9.35;6.18;;;21.40;81.40;;;;;;5047294;28;20314;-69
2023/05/02 13:08:04;;;;;;;9.68;5.90;;;20.90;83.20;;;;;;5048315;28;20228;-69
2023/05/02 13:10:53;;;;;;;7.57;5.82;;;21.00;85.00;;;;;;5041688;28;20224;-69
2023/05/02 13:13:44;;;;;;;7.85;6.15;;;20.80;85.50;;;;;;5034728;28;20231;-70
2023/05/02 13:16:35;;;;;;;10.50;7.05;;;20.50;85.20;;;;;;5049044;28;20255;-69
2023/05/02 13:19:24;;;;;;;9.20;7.25;;;20.60;87.30;;;;;;5045435;28;20347;-71
2023/05/02 13:22:13;;;;;;;11.07;7.32;;;20.60;87.10;;;;;;5048955;28;20310;-69
2023/05/02 13:25:06;;;;;;;10.95;6.80;;;20.60;86.30;;;;;;5049830;28;20215;-70
2023/05/02 13:27:55;;;;;;;11.68;6.90;;;20.50;84.80;;;;;;5054526;28;20639;-69
2023/05/02 13:30:45;;;;;;;7.35;5.70;;;20.60;86.80;;;;;;5064938;28;20220;-70
2023/05/02 13:33:34;;;;;;;6.78;5.30;;;20.60;85.00;;;;;;5064188;28;20306;-70
2023/05/02 13:36:23;;;;;;;8.43;5.43;;;20.80;84.40;;;;;;5066913;28;20259;-66
2023/05/02 13:39:12;;;;;;;8.70;5.47;;;21.00;83.70;;;;;;5064563;28;20327;-69
2023/05/02 13:42:02;;;;;;;6.63;4.93;;;21.10;81.20;;;;;;5062966;28;20216;-69
2023/05/02 13:44:53;;;;;;;6.30;5.25;;;21.00;81.00;;;;;;5065425;28;20238;-71
2023/05/02 13:47:43;;;;;;;6.45;5.20;;;21.10;80.80;;;;;;5064019;28;20246;-69
2023/05/02 13:50:36;;;;;;;7.40;5.30;;;21.20;79.40;;;;;;5056895;28;20313;-69
2023/05/02 13:53:24;;;;;;;7.55;4.85;;;21.10;80.60;;;;;;5064816;28;20219;-69
2023/05/02 13:56:13;;;;;;;7.13;4.70;;;21.00;80.10;;;;;;5062812;28;20235;-69
2023/05/02 13:59:02;;;;;;;9.20;4.53;;;21.00;80.10;;;;;;5065609;28;20308;-70
2023/05/02 14:01:55;;;;;;;6.15;4.55;;;20.80;78.60;;;;;;5066175;28;20564;-70
2023/05/02 14:04:45;;;;;;;10.63;8.10;;;20.90;78.60;;;;;;5062858;28;20220;-69
2023/05/02 14:07:34;;;;;;;8.57;5.70;;;21.00;79.20;;;;;;5061400;28;20847;-69
2023/05/02 14:10:23;;;;;;;6.88;4.90;;;21.00;78.10;;;;;;5068234;28;20219;-70
2023/05/02 14:13:12;;;;;;;9.57;4.95;;;21.10;79.10;;;;;;5060852;28;20220;-70
2023/05/02 14:16:01;;;;;;;9.23;4.70;;;21.20;80.20;;;;;;5061703;28;20322;-69
2023/05/02 14:18:50;;;;;;;12.95;10.40;;;20.90;79.10;;;;;;5062298;28;20236;-70
2023/05/02 14:21:40;;;;;;;9.88;5.85;;;20.90;78.40;;;;;;5063758;28;20224;-69
2023/05/02 14:24:29;;;;;;;9.45;5.50;;;20.90;77.90;;;;;;5066034;28;20305;-68
2023/05/02 14:27:18;;;;;;;9.23;5.35;;;20.90;78.70;;;;;;5077697;28;20216;-70
2023/05/02 14:30:08;;;;;;;10.10;5.70;;;20.80;80.40;;;;;;5068857;28;21107;-69
2023/05/02 14:32:57;;;;;;;8.63;5.05;;;20.90;79.70;;;;;;5071098;28;20234;-69
2023/05/02 14:35:46;;;;;;;11.85;5.82;;;20.90;79.90;;;;;;5075181;28;20231;-69
2023/05/02 14:38:36;;;;;;;8.30;6.30;;;20.70;79.40;;;;;;5070878;28;20243;-70
2023/05/02 14:41:26;;;;;;;8.90;6.05;;;20.60;78.80;;;;;;5071480;28;20286;-70
2023/05/02 14:44:15;;;;;;;10.15;5.82;;;20.40;80.00;;;;;;5077860;28;20296;-69
2023/05/02 14:47:04;;;;;;;7.75;5.57;;;20.50;81.50;;;;;;5078678;28;20254;-69